createdAt,value
2023-01-12T00:01:10.703Z,25.40
2023-01-12T00:03:39.607Z,14.20
2023-01-12T00:06:09.495Z,35.80
2023-01-12T00:08:38.586Z,17.70
2023-01-12T00:11:11.480Z,21.30
2023-01-12T00:13:39.838Z,18.70
2023-01-12T00:16:35.987Z,20.10
2023-01-12T00:19:19.935Z,29.00
2023-01-12T00:22:09.724Z,27.50
2023-01-12T00:24:44.314Z,25.50
2023-01-12T00:27:15.349Z,30.30
2023-01-12T00:29:43.905Z,27.10
2023-01-12T00:32:14.847Z,17.50
2023-01-12T00:34:43.621Z,24.50
2023-01-12T00:37:12.984Z,32.20
2023-01-12T00:39:45.893Z,17.40
2023-01-12T00:42:36.002Z,15.90
2023-01-12T00:45:23.370Z,19.20
2023-01-12T00:47:53.795Z,21.00
2023-01-12T00:50:23.017Z,22.50
2023-01-12T00:52:51.521Z,32.50
2023-01-12T00:55:20.899Z,22.20
2023-01-12T00:57:49.179Z,15.00
2023-01-12T01:00:18.319Z,21.60
2023-01-12T01:02:46.760Z,24.60
2023-01-12T01:05:15.576Z,16.80
2023-01-12T01:07:44.097Z,25.20
2023-01-12T01:10:12.700Z,14.30
2023-01-12T01:12:42.099Z,14.70
2023-01-12T01:15:10.869Z,25.50
2023-01-12T01:17:39.159Z,14.40
2023-01-12T01:20:07.928Z,14.20
2023-01-12T01:22:39.384Z,14.50
2023-01-12T01:25:13.618Z,12.20
2023-01-12T01:27:42.224Z,14.40
2023-01-12T01:30:11.442Z,16.70
2023-01-12T01:32:40.620Z,16.00
2023-01-12T01:35:09.593Z,23.20
2023-01-12T01:37:38.022Z,19.30
2023-01-12T01:40:07.267Z,12.60
2023-01-12T01:42:35.727Z,14.70
2023-01-12T01:45:06.294Z,17.70
2023-01-12T01:47:41.381Z,16.50
2023-01-12T01:50:18.830Z,22.40
2023-01-12T01:52:53.581Z,19.80
2023-01-12T01:56:04.915Z,17.50
2023-01-12T01:58:37.253Z,14.70
2023-01-12T02:02:02.425Z,24.20
2023-01-12T02:04:31.660Z,16.10
2023-01-12T02:07:19.927Z,12.30
2023-01-12T02:09:48.298Z,11.60
2023-01-12T02:12:35.494Z,21.30
2023-01-12T02:15:22.893Z,16.20
2023-01-12T02:18:19.548Z,7.60
2023-01-12T02:20:59.459Z,8.70
2023-01-12T02:24:00.120Z,23.50
2023-01-12T02:26:50.963Z,12.30
2023-01-12T02:29:34.433Z,10.80
2023-01-12T02:32:51.442Z,25.80
2023-01-12T02:35:55.258Z,13.90
2023-01-12T02:38:23.573Z,17.30
2023-01-12T02:41:03.873Z,14.80
2023-01-12T02:43:35.508Z,17.00
2023-01-12T02:46:26.002Z,12.50
2023-01-12T02:49:11.405Z,14.50
2023-01-12T02:52:14.591Z,17.10
2023-01-12T02:54:48.277Z,18.20
2023-01-12T02:57:17.231Z,17.40
2023-01-12T02:59:46.856Z,24.10
2023-01-12T03:02:21.879Z,13.80
2023-01-12T03:05:51.049Z,15.00
2023-01-12T03:08:45.694Z,26.00
2023-01-12T03:11:37.440Z,21.30
2023-01-12T03:14:08.646Z,23.80
2023-01-12T03:16:57.843Z,16.40
2023-01-12T03:19:31.347Z,19.30
2023-01-12T03:22:03.194Z,20.30
2023-01-12T03:24:50.705Z,14.60
2023-01-12T03:27:30.321Z,24.90
2023-01-12T03:30:27.882Z,23.30
2023-01-12T03:32:57.109Z,18.80
2023-01-12T03:35:52.173Z,18.10
2023-01-12T03:39:19.362Z,18.60
2023-01-12T03:42:03.327Z,26.80
2023-01-12T03:44:45.261Z,19.50
2023-01-12T03:47:21.043Z,18.40
2023-01-12T03:50:12.495Z,22.80
2023-01-12T03:52:43.807Z,22.10
2023-01-12T03:55:17.097Z,14.00
2023-01-12T03:57:47.106Z,23.60
2023-01-12T04:00:19.669Z,18.50
2023-01-12T04:02:48.146Z,21.50
2023-01-12T04:05:17.241Z,25.30
2023-01-12T04:08:20.434Z,35.10
2023-01-12T04:10:49.032Z,19.90
2023-01-12T04:13:17.993Z,23.20
2023-01-12T04:16:06.471Z,23.10
2023-01-12T04:18:34.768Z,22.10
2023-01-12T04:21:04.054Z,23.70
2023-01-12T04:23:33.339Z,30.60
2023-01-12T04:26:02.812Z,14.00
2023-01-12T04:28:52.781Z,22.00
2023-01-12T04:31:23.493Z,25.40
2023-01-12T04:33:52.042Z,30.90
2023-01-12T04:36:21.608Z,21.50
2023-01-12T04:39:07.108Z,15.70
2023-01-12T04:42:36.212Z,15.70
2023-01-12T04:45:05.237Z,18.60
2023-01-12T04:47:35.116Z,25.50
2023-01-12T04:50:04.287Z,12.00
2023-01-12T04:52:33.624Z,20.30
2023-01-12T04:55:02.162Z,17.70
2023-01-12T04:57:31.036Z,25.00
2023-01-12T05:00:19.523Z,20.40
2023-01-12T05:02:47.998Z,10.30
2023-01-12T05:05:16.953Z,34.10
2023-01-12T05:08:04.431Z,23.70
2023-01-12T05:10:45.785Z,18.60
2023-01-12T05:13:15.378Z,44.00
2023-01-12T05:15:46.058Z,38.90
2023-01-12T05:18:14.582Z,32.20
2023-01-12T05:20:43.995Z,24.40
2023-01-12T05:23:17.175Z,32.90
2023-01-12T05:26:08.841Z,37.90
2023-01-12T05:28:37.277Z,46.70
2023-01-12T05:31:13.718Z,27.80
2023-01-12T05:33:43.426Z,24.70
2023-01-12T05:36:15.174Z,24.20
2023-01-12T05:38:43.838Z,22.80
2023-01-12T05:41:14.830Z,40.70
2023-01-12T05:43:53.278Z,33.30
2023-01-12T05:46:23.972Z,24.80
2023-01-12T05:48:54.144Z,44.10
2023-01-12T05:51:23.998Z,38.20
2023-01-12T05:53:53.545Z,29.10
2023-01-12T05:56:26.094Z,26.80
2023-01-12T05:58:58.906Z,18.00
2023-01-12T06:01:29.595Z,21.10
2023-01-12T06:04:00.384Z,24.10
2023-01-12T06:06:31.687Z,41.80
2023-01-12T06:09:01.507Z,33.30
2023-01-12T06:11:49.109Z,36.10
2023-01-12T06:14:17.794Z,24.20
2023-01-12T06:16:46.377Z,39.30
2023-01-12T06:19:14.843Z,61.70
2023-01-12T06:21:43.358Z,41.30
2023-01-12T06:24:11.755Z,41.40
2023-01-12T06:26:40.445Z,50.30
2023-01-12T06:29:09.142Z,35.70
2023-01-12T06:31:39.227Z,63.30
2023-01-12T06:34:10.466Z,44.00
2023-01-12T06:36:39.759Z,39.60
2023-01-12T06:39:09.634Z,29.90
2023-01-12T06:41:56.765Z,28.20
2023-01-12T06:44:25.942Z,38.10
2023-01-12T06:46:54.564Z,54.90
2023-01-12T06:49:23.268Z,42.50
2023-01-12T06:51:53.563Z,45.60
2023-01-12T06:54:23.196Z,63.40
2023-01-12T06:56:51.603Z,53.30
2023-01-12T06:59:20.103Z,42.20
2023-01-12T07:01:48.683Z,32.10
2023-01-12T07:04:17.207Z,65.50
2023-01-12T07:06:45.869Z,42.50
2023-01-12T07:09:14.376Z,31.00
2023-01-12T07:11:42.999Z,27.00
2023-01-12T07:14:11.327Z,30.80
2023-01-12T07:16:40.535Z,31.60
2023-01-12T07:19:09.948Z,29.90
2023-01-12T07:21:38.364Z,36.50
2023-01-12T07:24:07.577Z,38.20
2023-01-12T07:26:36.429Z,30.40
2023-01-12T07:29:04.871Z,29.20
2023-01-12T07:32:12.505Z,15.80
2023-01-12T07:34:42.087Z,29.10
2023-01-12T07:37:10.562Z,22.10
2023-01-12T07:39:40.879Z,30.00
2023-01-12T07:42:23.727Z,25.40
2023-01-12T07:45:00.922Z,30.80
2023-01-12T07:47:30.667Z,20.70
2023-01-12T07:49:59.739Z,24.90
2023-01-12T07:52:28.157Z,23.20
2023-01-12T07:54:58.168Z,24.50
2023-01-12T07:57:27.855Z,24.40
2023-01-12T07:59:56.165Z,27.50
2023-01-12T08:02:24.741Z,23.10
2023-01-12T08:04:55.076Z,36.40
2023-01-12T08:07:24.305Z,24.60
2023-01-12T08:09:52.978Z,21.90
2023-01-12T08:12:21.804Z,22.40
2023-01-12T08:14:50.392Z,22.60
2023-01-12T08:17:45.859Z,20.60
2023-01-12T08:20:19.064Z,20.40
2023-01-12T08:22:52.098Z,24.00
2023-01-12T08:25:27.241Z,22.40
2023-01-12T08:28:01.301Z,41.30
2023-01-12T08:30:30.371Z,31.80
2023-01-12T08:33:20.976Z,33.30
2023-01-12T08:35:49.818Z,31.50
2023-01-12T08:38:19.552Z,23.80
2023-01-12T08:41:09.956Z,21.30
2023-01-12T08:43:57.224Z,20.60
2023-01-12T08:46:25.552Z,16.80
2023-01-12T08:48:54.798Z,31.20
2023-01-12T08:51:30.866Z,22.00
2023-01-12T08:54:00.565Z,19.00
2023-01-12T08:56:29.581Z,27.60
2023-01-12T08:58:58.592Z,28.90
2023-01-12T09:01:27.895Z,27.00
2023-01-12T09:03:57.989Z,15.40
2023-01-12T09:06:31.006Z,19.60
2023-01-12T09:09:02.916Z,42.90
2023-01-12T09:11:32.755Z,42.90
2023-01-12T09:14:02.114Z,25.20
2023-01-12T09:16:33.287Z,53.50
2023-01-12T09:19:03.144Z,66.70
2023-01-12T09:21:33.518Z,44.40
2023-01-12T09:24:01.805Z,41.90
2023-01-12T09:26:32.709Z,49.30
2023-01-12T09:29:02.612Z,36.70
2023-01-12T09:31:33.096Z,46.80
2023-01-12T09:34:01.867Z,29.10
2023-01-12T09:36:32.967Z,32.30
2023-01-12T09:39:02.693Z,32.10
2023-01-12T09:42:13.970Z,29.40
2023-01-12T09:45:45.804Z,15.30
2023-01-12T09:48:14.709Z,32.40
2023-01-12T09:51:09.909Z,37.50
2023-01-12T09:53:41.227Z,18.90
2023-01-12T09:56:29.865Z,23.80
2023-01-12T09:59:22.828Z,19.30
2023-01-12T10:01:53.578Z,13.50
2023-01-12T10:04:21.987Z,19.70
2023-01-12T10:06:50.439Z,22.40
2023-01-12T10:09:21.890Z,20.70
2023-01-12T10:12:19.411Z,20.00
2023-01-12T10:14:53.861Z,18.80
2023-01-12T10:17:50.813Z,18.20
2023-01-12T10:20:34.128Z,24.70
2023-01-12T10:23:10.070Z,18.90
2023-01-12T10:25:43.528Z,18.60
2023-01-12T10:28:24.429Z,23.90
2023-01-12T10:30:56.446Z,23.00
2023-01-12T10:33:30.488Z,22.60
2023-01-12T10:36:09.979Z,20.70
2023-01-12T10:38:56.838Z,21.70
2023-01-12T10:41:29.809Z,20.70
2023-01-12T10:44:01.173Z,28.80
2023-01-12T10:46:34.494Z,24.00
2023-01-12T10:49:23.934Z,23.80
2023-01-12T10:51:59.582Z,19.50
2023-01-12T10:54:34.692Z,19.60
2023-01-12T10:57:24.438Z,22.80
2023-01-12T11:00:02.891Z,26.70
2023-01-12T11:02:44.706Z,24.70
2023-01-12T11:05:37.024Z,26.40
2023-01-12T11:08:26.676Z,28.20
2023-01-12T11:10:57.116Z,19.10
2023-01-12T11:13:37.053Z,31.70
2023-01-12T11:16:39.308Z,24.40
2023-01-12T11:19:33.004Z,19.30
2023-01-12T11:22:22.164Z,15.90
2023-01-12T11:25:32.255Z,15.70
2023-01-12T11:28:33.798Z,15.30
2023-01-12T11:31:08.397Z,31.60
2023-01-12T11:34:00.956Z,17.30
2023-01-12T11:36:37.359Z,26.00
2023-01-12T11:39:31.700Z,17.60
2023-01-12T11:42:21.520Z,22.90
2023-01-12T11:45:15.358Z,27.00
2023-01-12T11:47:51.853Z,21.00
2023-01-12T11:50:33.786Z,22.00
2023-01-12T11:53:05.431Z,20.20
2023-01-12T11:55:56.892Z,21.50
2023-01-12T11:58:43.452Z,19.30
2023-01-12T12:01:34.239Z,17.00
2023-01-12T12:04:26.140Z,17.00
2023-01-12T12:07:09.377Z,21.30
2023-01-12T12:09:53.447Z,34.60
2023-01-12T12:12:48.207Z,29.50
2023-01-12T12:15:28.560Z,19.60
2023-01-12T12:18:17.138Z,24.60
2023-01-12T12:21:06.062Z,29.60
2023-01-12T12:23:59.725Z,25.80
2023-01-12T12:26:36.923Z,43.00
2023-01-12T12:29:16.193Z,32.10
2023-01-12T12:32:18.858Z,33.10
2023-01-12T12:34:47.357Z,26.90
2023-01-12T12:37:57.157Z,20.70
2023-01-12T12:41:20.121Z,24.50
2023-01-12T12:44:37.718Z,23.40
2023-01-12T12:47:24.113Z,23.40
2023-01-12T12:49:56.719Z,26.20
2023-01-12T12:52:29.832Z,29.00
2023-01-12T12:54:59.574Z,22.40
2023-01-12T12:57:27.927Z,24.10
2023-01-12T13:00:00.188Z,24.30
2023-01-12T13:02:33.889Z,18.60
2023-01-12T13:05:05.319Z,27.80
2023-01-12T13:07:37.980Z,20.80
2023-01-12T13:10:31.527Z,29.20
2023-01-12T13:13:04.541Z,28.00
2023-01-12T13:15:37.358Z,26.20
2023-01-12T13:18:06.487Z,16.70
2023-01-12T13:20:56.804Z,18.50
2023-01-12T13:23:46.203Z,25.00
2023-01-12T13:26:35.884Z,26.50
2023-01-12T13:29:24.812Z,19.80
2023-01-12T13:32:27.987Z,27.40
2023-01-12T13:34:56.431Z,24.50
2023-01-12T13:37:34.428Z,20.90
2023-01-12T13:40:28.714Z,20.80
2023-01-12T13:43:16.227Z,26.90
2023-01-12T13:46:10.767Z,16.30
2023-01-12T13:48:46.140Z,20.80
2023-01-12T13:51:21.159Z,20.10
2023-01-12T13:54:07.266Z,18.60
2023-01-12T13:56:35.694Z,22.90
2023-01-12T13:59:08.082Z,26.10
2023-01-12T14:01:39.677Z,27.20
2023-01-12T14:04:14.027Z,31.20
2023-01-12T14:06:54.502Z,25.20
2023-01-12T14:09:27.724Z,24.60
2023-01-12T14:12:34.817Z,18.70
2023-01-12T14:15:41.491Z,20.40
2023-01-12T14:18:13.776Z,41.30
2023-01-12T14:20:52.184Z,40.80
2023-01-12T14:23:25.009Z,23.60
2023-01-12T14:26:14.702Z,25.30
2023-01-12T14:28:52.564Z,43.10
2023-01-12T14:31:31.908Z,44.90
2023-01-12T14:34:04.688Z,43.70
2023-01-12T14:36:45.738Z,60.90
2023-01-12T14:39:22.155Z,53.20
2023-01-12T14:42:11.949Z,29.30
2023-01-12T14:45:13.567Z,33.10
2023-01-12T14:47:42.195Z,34.70
2023-01-12T14:50:13.584Z,40.90
2023-01-12T14:52:46.987Z,38.90
2023-01-12T14:55:16.381Z,33.30
2023-01-12T14:57:52.367Z,41.60
2023-01-12T15:00:27.938Z,39.90
2023-01-12T15:03:02.068Z,33.20
2023-01-12T15:05:34.297Z,44.10
2023-01-12T15:08:19.894Z,36.20
2023-01-12T15:11:01.067Z,30.80
2023-01-12T15:13:34.686Z,38.60
2023-01-12T15:16:23.676Z,46.30
2023-01-12T15:19:12.443Z,31.80
2023-01-12T15:22:05.354Z,33.40
2023-01-12T15:24:54.584Z,31.00
2023-01-12T15:27:24.028Z,35.10
2023-01-12T15:29:52.517Z,63.20
2023-01-12T15:32:46.329Z,53.40
2023-01-12T15:35:25.994Z,44.40
2023-01-12T15:37:56.567Z,39.20
2023-01-12T15:40:26.736Z,52.30
2023-01-12T15:42:55.417Z,48.30
2023-01-12T15:45:32.922Z,40.20
2023-01-12T15:48:02.777Z,37.20
2023-01-12T15:50:32.351Z,37.30
2023-01-12T15:53:01.935Z,37.00
2023-01-12T15:55:36.361Z,54.70
2023-01-12T15:58:04.792Z,55.20
2023-01-12T16:00:34.237Z,58.30
2023-01-12T16:03:05.009Z,57.30
2023-01-12T16:05:33.332Z,49.20
2023-01-12T16:08:01.580Z,54.50
2023-01-12T16:10:30.636Z,49.70
2023-01-12T16:13:07.584Z,38.80
2023-01-12T16:15:36.005Z,39.40
2023-01-12T16:18:04.418Z,32.10
2023-01-12T16:20:32.636Z,38.50
2023-01-12T16:23:00.870Z,36.30
2023-01-12T16:25:29.129Z,30.40
2023-01-12T16:27:57.597Z,39.60
2023-01-12T16:30:25.977Z,38.20
2023-01-12T16:32:57.668Z,32.20
2023-01-12T16:35:26.130Z,46.50
2023-01-12T16:38:14.464Z,32.60
2023-01-12T16:40:45.404Z,22.70
2023-01-12T16:43:13.915Z,25.40
2023-01-12T16:45:42.787Z,21.80
2023-01-12T16:48:11.112Z,33.20
2023-01-12T16:50:41.328Z,29.90
2023-01-12T16:53:11.654Z,57.20
2023-01-12T16:55:45.137Z,52.90
2023-01-12T16:58:15.339Z,31.80
2023-01-12T17:00:43.695Z,46.20
2023-01-12T17:03:14.566Z,54.50
2023-01-12T17:05:43.293Z,35.80
2023-01-12T17:08:11.557Z,43.70
2023-01-12T17:10:40.244Z,44.30
2023-01-12T17:13:08.506Z,57.80
2023-01-12T17:15:37.448Z,48.10
2023-01-12T17:18:06.276Z,49.40
2023-01-12T17:20:35.048Z,56.00
2023-01-12T17:23:03.727Z,55.30
2023-01-12T17:25:33.578Z,47.00
2023-01-12T17:28:02.025Z,34.70
2023-01-12T17:30:31.790Z,29.80
2023-01-12T17:33:00.044Z,34.00
2023-01-12T17:35:28.339Z,54.50
2023-01-12T17:37:56.613Z,38.10
2023-01-12T17:40:27.486Z,29.80
2023-01-12T17:43:07.816Z,47.90
2023-01-12T17:45:43.820Z,45.40
2023-01-12T17:48:13.249Z,40.70
2023-01-12T17:50:41.868Z,73.80
2023-01-12T17:53:17.567Z,42.50
2023-01-12T17:55:48.746Z,36.70
2023-01-12T17:58:18.830Z,39.20
2023-01-12T18:00:47.422Z,38.80
2023-01-12T18:03:16.036Z,38.20
2023-01-12T18:05:47.075Z,39.40
2023-01-12T18:08:16.185Z,28.60
2023-01-12T18:10:45.460Z,41.30
2023-01-12T18:13:14.426Z,35.30
2023-01-12T18:15:43.384Z,33.60
2023-01-12T18:18:11.825Z,26.00
2023-01-12T18:20:40.163Z,37.60
2023-01-12T18:23:08.485Z,31.60
2023-01-12T18:25:37.251Z,32.10
2023-01-12T18:28:06.185Z,43.30
2023-01-12T18:30:35.161Z,44.10
2023-01-12T18:33:10.331Z,39.70
2023-01-12T18:35:39.241Z,28.50
2023-01-12T18:38:08.183Z,39.30
2023-01-12T18:40:36.524Z,33.20
2023-01-12T18:43:04.767Z,46.10
2023-01-12T18:45:33.565Z,52.90
2023-01-12T18:48:20.405Z,39.70
2023-01-12T18:51:11.699Z,37.60
2023-01-12T18:53:41.139Z,30.40
2023-01-12T18:56:10.268Z,42.50
2023-01-12T18:58:40.208Z,41.50
2023-01-12T19:01:13.798Z,46.70
2023-01-12T19:03:42.218Z,41.10
2023-01-12T19:06:28.944Z,39.10
2023-01-12T19:09:15.865Z,45.80
2023-01-12T19:11:44.853Z,56.40
2023-01-12T19:14:31.820Z,36.60
2023-01-12T19:17:19.070Z,51.10
2023-01-12T19:19:47.406Z,32.90
2023-01-12T19:22:34.478Z,34.70
2023-01-12T19:25:21.881Z,45.30
2023-01-12T19:28:08.824Z,53.70
2023-01-12T19:30:38.381Z,57.20
2023-01-12T19:33:09.030Z,42.80
2023-01-12T19:35:38.004Z,37.10
2023-01-12T19:38:06.436Z,43.70
2023-01-12T19:40:44.575Z,47.90
2023-01-12T19:43:20.589Z,46.70
2023-01-12T19:45:59.115Z,38.90
2023-01-12T19:48:27.945Z,45.90
2023-01-12T19:50:56.355Z,38.90
2023-01-12T19:53:28.811Z,50.10
2023-01-12T19:55:57.150Z,44.50
2023-01-12T19:58:27.525Z,43.10
2023-01-12T20:01:00.902Z,48.60
2023-01-12T20:03:29.252Z,44.70
2023-01-12T20:05:57.914Z,48.60
2023-01-12T20:08:26.477Z,44.10
2023-01-12T20:10:59.744Z,41.80
2023-01-12T20:13:28.213Z,44.10
2023-01-12T20:15:57.821Z,44.40
2023-01-12T20:18:35.967Z,43.30
2023-01-12T20:21:12.050Z,38.10
2023-01-12T20:23:46.301Z,39.70
2023-01-12T20:26:15.858Z,40.00
2023-01-12T20:28:45.203Z,57.20
2023-01-12T20:31:16.113Z,58.50
2023-01-12T20:33:44.623Z,53.30
2023-01-12T20:36:15.563Z,40.60
2023-01-12T20:38:46.087Z,61.00
2023-01-12T20:41:15.201Z,46.00
2023-01-12T20:43:45.985Z,36.00
2023-01-12T20:46:17.322Z,47.20
2023-01-12T20:48:45.695Z,34.50
2023-01-12T20:51:32.608Z,39.00
2023-01-12T20:54:03.352Z,35.80
2023-01-12T20:56:37.446Z,34.50
2023-01-12T20:59:06.767Z,34.10
2023-01-12T21:01:35.213Z,42.10
2023-01-12T21:04:03.895Z,34.50
2023-01-12T21:06:32.343Z,34.50
2023-01-12T21:09:00.816Z,30.70
2023-01-12T21:11:29.712Z,42.40
2023-01-12T21:13:59.095Z,36.10
2023-01-12T21:16:31.603Z,44.60
2023-01-12T21:19:04.077Z,39.90
2023-01-12T21:21:50.153Z,52.70
2023-01-12T21:24:18.480Z,41.10
2023-01-12T21:26:48.713Z,36.70
2023-01-12T21:29:17.918Z,36.60
2023-01-12T21:31:47.777Z,29.40
2023-01-12T21:34:16.259Z,41.90
2023-01-12T21:36:46.417Z,44.10
2023-01-12T21:39:16.156Z,44.20
2023-01-12T21:42:03.045Z,31.80
2023-01-12T21:44:31.684Z,32.60
2023-01-12T21:47:00.008Z,39.30
2023-01-12T21:49:28.324Z,37.80
2023-01-12T21:51:57.181Z,29.20
2023-01-12T21:54:26.285Z,42.80
2023-01-12T21:56:54.585Z,33.10
2023-01-12T21:59:22.991Z,50.20
2023-01-12T22:01:51.732Z,38.70
2023-01-12T22:04:20.394Z,38.40
2023-01-12T22:06:52.667Z,38.30
2023-01-12T22:09:21.337Z,37.30
2023-01-12T22:11:49.690Z,39.50
2023-01-12T22:14:18.214Z,40.90
2023-01-12T22:16:46.630Z,37.20
2023-01-12T22:19:15.036Z,35.60
2023-01-12T22:21:44.430Z,34.40
2023-01-12T22:24:12.875Z,23.40
2023-01-12T22:26:41.870Z,31.60
2023-01-12T22:29:10.421Z,27.20
2023-01-12T22:31:39.224Z,26.40
2023-01-12T22:34:08.420Z,26.90
2023-01-12T22:36:43.115Z,29.60
2023-01-12T22:39:12.505Z,24.30
2023-01-12T22:41:41.302Z,24.80
2023-01-12T22:44:09.758Z,24.70
2023-01-12T22:46:38.692Z,21.20
2023-01-12T22:49:07.513Z,32.20
2023-01-12T22:51:36.362Z,27.30
2023-01-12T22:54:08.707Z,27.90
2023-01-12T22:56:41.022Z,21.50
2023-01-12T22:59:09.999Z,19.90
2023-01-12T23:01:39.006Z,19.70
2023-01-12T23:04:13.622Z,28.30
2023-01-12T23:06:42.036Z,26.20
2023-01-12T23:09:12.023Z,34.70
2023-01-12T23:11:40.515Z,19.70
2023-01-12T23:14:09.055Z,34.40
2023-01-12T23:16:37.490Z,23.20
2023-01-12T23:19:05.721Z,29.80
2023-01-12T23:21:35.861Z,26.60
2023-01-12T23:24:05.402Z,21.10
2023-01-12T23:26:45.663Z,28.40
2023-01-12T23:29:16.357Z,27.20
2023-01-12T23:31:44.643Z,22.00
2023-01-12T23:34:13.708Z,32.10
2023-01-12T23:36:42.452Z,30.00
2023-01-12T23:39:12.510Z,20.70
2023-01-12T23:41:40.740Z,21.40
2023-01-12T23:44:10.236Z,27.50
2023-01-12T23:46:43.913Z,27.40
2023-01-12T23:49:12.242Z,18.30
2023-01-12T23:51:40.690Z,23.10
2023-01-12T23:54:13.339Z,30.50
2023-01-12T23:56:46.315Z,27.50
2023-01-12T23:59:15.783Z,19.10
